KNTU/NTU METAR and TAF weather

Enter ICAO airport designator
Station Type Date Time Source
KNTU METAR 2023/02/05 13:56 UTC NOAA

KNTU 051356Z 21006KT 10SM BKN200 02/M07 A3039 RMK AO2 SLP294 T00221072


Station Type Date Time Source
KNTU Decoded METAR 2023/02/05 13:56 UTC NOAA

OCEANA, NAVAL AIR STATION, VA, United States (KNTU) 36-49N 076-02W 6M
Feb 05, 2023 - 08:56 AM EST / 2023.02.05 1356 UTC
Wind: from the SSW (210 degrees) at 7 MPH (6 KT):0
Visibility: 10 mile(s):0
Sky conditions: mostly cloudy
Temperature: 36.0 F (2.2 C)
Dew Point: 19.0 F (-7.2 C)
Relative Humidity: 49%
Pressure (altimeter): 30.39 in. Hg (1029 hPa)
ob: KNTU 051356Z 21006KT 10SM BKN200 02/M07 A3039 RMK AO2 SLP294 T00221072
cycle: 14

Station Type Date Time Source
KNTU TAF 2023/02/05 07:16 UTC NOAA

TAF KNTU 0507/0607 22010G15KT 9999 FEW250 QNH3040INS
BECMG 0512/0514 20013KT 9999 FEW300 QNH3030INS
BECMG 0517/0519 20013KT 9999 SCT030 BKN050 QNH3015INS
BECMG 0521/0523 24013G18KT 9999 VCSH BKN027 BKN040 QNH3017INS
TEMPO 0603/0606 25008KT 9000 -SHRA OVC004 QNH3006INS T01/0511Z T14/0519Z FN00219

Example: see airport list